Spacecraft Satellite overpass computed based on SGP4 code. Updated every day at 2:25 LT
Spacecraft : Terra    
         GMT                             Satellite      Satellite     Solar          Solar         Scat ang       
  year-mo-da hr:mn:sc    elevation     azimuth    elevation   azimuth    (bk=180)     
  2022-11-28 08:18:25     24.2             92.8          13.9           150.9         124.5
  2022-11-28 09:56:17     48.3            291.1          18.6           174.1          87.2
  2022-11-28 19:28:14     42.4             67.6         -45.3           294.1        -999.0
  2022-11-28 21:06:01     27.5            266.0         -57.4           325.9        -999.0
Spacecraft : Aqua    
         GMT                             Satellite      Satellite     Solar          Solar         Scat ang       
  year-mo-da hr:mn:sc    elevation     azimuth    elevation   azimuth    (bk=180)     
  2022-11-28 01:06:07     72.6            287.4         -46.1            64.0        -999.0
  2022-11-28 02:43:02     12.7            306.8         -31.1            86.0        -999.0
  2022-11-28 10:38:42     30.6             63.8          18.7           184.5          75.4
  2022-11-28 12:16:19     39.4            262.3          14.4           207.7         126.2
Spacecraft : CALIPSO    
         GMT                             Satellite      Satellite     Solar          Solar         Scat ang       
  year-mo-da hr:mn:sc    elevation     azimuth    elevation   azimuth    (bk=180)     
  2022-11-28 01:59:30     61.3            101.8         -38.0            76.9        -999.0
  2022-11-28 03:36:27     20.8            300.5         -22.5            96.1        -999.0
  2022-11-28 11:30:12     17.4             57.3          17.2           197.0          52.7
  2022-11-28 13:07:00     76.4            256.2           9.9           218.9         110.5
  2022-11-28 14:45:06     10.3            274.6          -1.5           238.5        -999.0
Spacecraft : CloudSat    
         GMT                             Satellite      Satellite     Solar          Solar         Scat ang       
  year-mo-da hr:mn:sc    elevation     azimuth    elevation   azimuth    (bk=180)     
  2022-11-28 02:00:01     59.3            101.6         -37.9            77.0        -999.0
  2022-11-28 03:36:59     21.2            300.3         -22.4            96.2        -999.0
  2022-11-28 11:30:44     17.0             57.1          17.2           197.1          52.1
  2022-11-28 13:07:31     78.7            255.8           9.8           219.0         108.8
  2022-11-28 14:45:36     10.7            274.3          -1.6           238.6        -999.0
Spacecraft : ISS    
         GMT                             Satellite      Satellite     Solar          Solar         Scat ang       
  year-mo-da hr:mn:sc    elevation     azimuth    elevation   azimuth    (bk=180)     
  2022-11-28 12:55:09     19.4            141.7          11.1           216.3         108.0
  2022-11-28 14:31:30     75.1            159.9           0.4           235.9          93.9
  2022-11-28 16:08:19     63.5            359.8         -13.7           253.7        -999.0
  2022-11-28 17:45:09     76.7            199.9         -29.1           271.4        -999.0
  2022-11-28 19:21:30     19.9            218.0         -44.3           292.4        -999.0